Etusivu
METAR-TAF:

METAR-TAF

Lentoasemat :

Fort Chipewyan, Alberta, Kanada

Leveyspiiri: 58-46N, Pituuspiiri: 111-07W, korkeus merenpinnasta: 232 m

Tämänhetkinen sää

Tämä raportti tehtiin 23 minuuttia sitten, kello 00.00 UTC
Tuuli 9 kn lännestä/luoteesta, vaihdellen lännen ja pohjoisen/koillisen välillä
Lämpötila 4°C
Kosteus 44%
Ilmanpaine 1020 hPa
Näkyvyys: 14.5 km
Pilvistä 4400 ft:n korkeudessa

METAR: CYPY 260000Z AUTO 30009KT 260V020 9SM OVC044 04/M07 A3011 RMK SLP213

Aika: 18:23 (00:23 UTC)

Sääennuste

Tämä raportti tehtiin 45 minuuttia sitten, kello 23.38 UTC
Ennuste voimassa 26. päivästä klo 00 UTC - 26. päivään klo 06 UTC
Tuuli 10 kn pohjoisesta
Näkyvyys: 10 km
Hajonneita pilviä 3000 ft:n korkeudessa
Ajoittain
26. päivästä klo 00 UTC - 26. päivään klo 06 UTC
Hajanaisia pilviä 3000 ft:n korkeudessa

TAF: CYPY 252338Z 2600/2606 35010KT P6SM BKN030 TEMPO 2600/2606 SCT030 RMK FCST BASED ON AUTO OBS. NXT FCST WILL BE ISSUED AT 261145Z

Säähavainnot ja -ennusteet yli 4000 lentoasemalta (METAR- ja TAF-raportit).

Käytössä olevat sääasemat on merkitty karttaan keltaisilla ja punaisilla pisteillä.

Aseta hiiri pisteen päälle nähdäksesi sääaseman nimen.

Klikkaa sitten nähdäksesi säähavainnot ja -ennusteet.

Kartan vaihtaminen: klikkaa mustalla rastilla varustettuja vihreitä pisteitä, niin voit zoomata sisään; viivalla varustettua vihreää pistettä, niin voit zoomata ulos tai vihreitä nuolia, niin pääset viereisille kartoille.


METAR-TAF: